createdAt,value
2023-02-05T00:01:44.714Z,75.17
2023-02-05T00:04:09.493Z,74.67
2023-02-05T00:06:33.300Z,74.07
2023-02-05T00:08:58.311Z,74.81
2023-02-05T00:11:23.460Z,74.47
2023-02-05T00:13:47.231Z,75.15
2023-02-05T00:16:12.957Z,73.65
2023-02-05T00:18:37.453Z,73.59
2023-02-05T00:21:01.127Z,73.99
2023-02-05T00:23:24.913Z,73.74
2023-02-05T00:25:48.574Z,73.13
2023-02-05T00:28:13.896Z,73.03
2023-02-05T00:30:37.647Z,73.53
2023-02-05T00:33:01.448Z,72.68
2023-02-05T00:35:25.211Z,73.37
2023-02-05T00:37:48.877Z,73.27
2023-02-05T00:40:14.094Z,72.90
2023-02-05T00:42:38.608Z,73.85
2023-02-05T00:45:03.891Z,74.59
2023-02-05T00:47:27.680Z,73.55
2023-02-05T00:49:51.305Z,74.11
2023-02-05T00:52:15.425Z,74.45
2023-02-05T00:54:39.142Z,74.93
2023-02-05T00:57:03.793Z,74.79
2023-02-05T00:59:27.685Z,76.12
2023-02-05T01:01:52.846Z,74.74
2023-02-05T01:04:17.444Z,74.84
2023-02-05T01:06:41.207Z,74.56
2023-02-05T01:09:05.434Z,75.41
2023-02-05T01:11:29.628Z,75.93
2023-02-05T01:13:53.314Z,78.64
2023-02-05T01:16:17.296Z,77.31
2023-02-05T01:18:42.686Z,77.11
2023-02-05T01:21:06.867Z,77.98
2023-02-05T01:23:30.589Z,78.46
2023-02-05T01:25:54.350Z,77.29
2023-02-05T01:28:18.084Z,77.61
2023-02-05T01:30:43.105Z,79.38
2023-02-05T01:33:06.942Z,81.05
2023-02-05T01:35:32.514Z,79.65
2023-02-05T01:37:56.334Z,78.63
2023-02-05T01:40:20.772Z,78.62
2023-02-05T01:42:44.858Z,79.53
2023-02-05T01:46:01.987Z,78.63
2023-02-05T01:48:31.442Z,78.75
2023-02-05T01:51:01.264Z,78.25
2023-02-05T01:53:29.707Z,77.33
2023-02-05T01:55:57.657Z,79.83
2023-02-05T01:58:21.535Z,81.27
2023-02-05T02:00:45.500Z,80.30
2023-02-05T02:03:09.262Z,79.04
2023-02-05T02:05:33.380Z,78.43
2023-02-05T02:07:59.074Z,77.60
2023-02-05T02:10:23.062Z,78.07
2023-02-05T02:12:49.143Z,79.71
2023-02-05T02:15:17.897Z,77.93
2023-02-05T02:17:45.021Z,77.86
2023-02-05T02:20:12.851Z,78.13
2023-02-05T02:23:03.713Z,77.53
2023-02-05T02:25:56.177Z,77.70
2023-02-05T02:28:27.985Z,80.83
2023-02-05T02:31:01.110Z,81.43
2023-02-05T02:33:36.624Z,79.88
2023-02-05T02:36:04.655Z,79.61
2023-02-05T02:38:33.020Z,78.90
2023-02-05T02:41:05.701Z,81.54
2023-02-05T02:43:36.722Z,82.70
2023-02-05T02:46:04.588Z,81.94
2023-02-05T02:48:31.987Z,81.54
2023-02-05T02:50:58.362Z,82.52
2023-02-05T02:53:25.963Z,80.44
2023-02-05T02:55:52.180Z,80.83
2023-02-05T02:58:22.782Z,79.81
2023-02-05T03:00:49.884Z,79.75
2023-02-05T03:03:17.827Z,78.49
2023-02-05T03:05:45.456Z,80.32
2023-02-05T03:08:14.407Z,80.04
2023-02-05T03:10:44.529Z,78.49
2023-02-05T03:13:12.234Z,79.38
2023-02-05T03:15:40.118Z,79.21
2023-02-05T03:18:05.893Z,82.18
2023-02-05T03:20:34.025Z,80.27
2023-02-05T03:22:58.381Z,79.32
2023-02-05T03:25:23.763Z,78.52
2023-02-05T03:27:54.512Z,79.89
2023-02-05T03:30:20.987Z,79.86
2023-02-05T03:33:01.345Z,80.32
2023-02-05T03:35:36.581Z,81.44
2023-02-05T03:38:37.082Z,78.90
2023-02-05T03:41:11.084Z,79.26
2023-02-05T03:43:46.945Z,78.41
2023-02-05T03:46:19.134Z,80.50
2023-02-05T03:48:56.703Z,81.61
2023-02-05T03:51:34.577Z,82.39
2023-02-05T03:54:11.379Z,82.35
2023-02-05T03:56:45.105Z,82.89
2023-02-05T03:59:10.941Z,83.51
2023-02-05T04:01:36.001Z,82.62
2023-02-05T04:03:59.965Z,82.96
2023-02-05T04:06:26.302Z,84.00
2023-02-05T04:08:50.771Z,83.04
2023-02-05T04:11:14.619Z,83.87
2023-02-05T04:13:40.436Z,83.34
2023-02-05T04:16:07.583Z,83.85
2023-02-05T04:18:31.435Z,82.72
2023-02-05T04:20:55.325Z,81.92
2023-02-05T04:23:23.507Z,81.18
2023-02-05T04:25:48.241Z,81.64
2023-02-05T04:28:15.503Z,81.51
2023-02-05T04:30:40.574Z,81.65
2023-02-05T04:33:06.478Z,81.15
2023-02-05T04:35:30.400Z,81.86
2023-02-05T04:37:54.631Z,81.51
2023-02-05T04:40:21.256Z,81.28
2023-02-05T04:42:45.345Z,80.00
2023-02-05T04:45:10.439Z,79.78
2023-02-05T04:47:34.634Z,81.99
2023-02-05T04:49:58.289Z,81.37
2023-02-05T04:52:22.066Z,80.23
2023-02-05T04:54:45.716Z,80.59
2023-02-05T04:57:10.915Z,80.06
2023-02-05T04:59:34.628Z,80.65
2023-02-05T05:01:58.657Z,81.87
2023-02-05T05:04:22.398Z,81.42
2023-02-05T05:06:46.111Z,81.58
2023-02-05T05:09:09.786Z,80.78
2023-02-05T05:11:33.515Z,82.03
2023-02-05T05:13:59.374Z,83.22
2023-02-05T05:16:23.128Z,83.12
2023-02-05T05:18:47.024Z,82.72
2023-02-05T05:21:11.668Z,84.05
2023-02-05T05:23:35.908Z,83.41
2023-02-05T05:25:59.659Z,82.44
2023-02-05T05:28:23.401Z,81.69
2023-02-05T05:30:49.082Z,81.85
2023-02-05T05:33:13.300Z,80.95
2023-02-05T05:35:37.421Z,80.83
2023-02-05T05:38:01.997Z,81.27
2023-02-05T05:40:43.383Z,81.29
2023-02-05T05:43:24.683Z,80.19
2023-02-05T05:45:49.832Z,81.01
2023-02-05T05:48:13.526Z,81.69
2023-02-05T05:50:37.249Z,80.89
2023-02-05T05:53:00.977Z,80.01
2023-02-05T05:55:24.730Z,81.33
2023-02-05T05:57:48.433Z,82.11
2023-02-05T06:00:14.528Z,81.88
2023-02-05T06:02:44.307Z,81.25
2023-02-05T06:05:08.958Z,81.22
2023-02-05T06:07:32.622Z,81.14
2023-02-05T06:09:56.353Z,80.93
2023-02-05T06:12:19.990Z,81.87
2023-02-05T06:14:45.070Z,81.83
2023-02-05T06:17:08.694Z,82.61
2023-02-05T06:19:33.821Z,82.70
2023-02-05T06:21:57.481Z,82.39
2023-02-05T06:24:21.197Z,81.27
2023-02-05T06:26:44.881Z,81.48
2023-02-05T06:29:08.580Z,82.57
2023-02-05T06:31:32.596Z,84.09
2023-02-05T06:33:56.394Z,83.61
2023-02-05T06:36:21.520Z,83.05
2023-02-05T06:38:45.220Z,83.30
2023-02-05T06:41:08.921Z,83.54
2023-02-05T06:43:32.600Z,83.66
2023-02-05T06:45:56.920Z,83.86
2023-02-05T06:48:20.708Z,83.20
2023-02-05T06:50:44.386Z,82.56
2023-02-05T06:53:11.583Z,82.05
2023-02-05T06:55:35.832Z,82.41
2023-02-05T06:57:59.709Z,83.78
2023-02-05T07:00:23.827Z,84.89
2023-02-05T07:02:47.669Z,86.53
2023-02-05T07:05:12.817Z,85.27
2023-02-05T07:07:36.694Z,83.87
2023-02-05T07:10:02.137Z,84.66
2023-02-05T07:12:25.889Z,85.37
2023-02-05T07:14:49.671Z,85.32
2023-02-05T07:17:13.543Z,85.09
2023-02-05T07:19:37.786Z,83.98
2023-02-05T07:22:01.904Z,83.43
2023-02-05T07:24:25.527Z,84.08
2023-02-05T07:26:50.699Z,84.26
2023-02-05T07:29:14.518Z,84.42
2023-02-05T07:31:38.563Z,84.53
2023-02-05T07:34:02.417Z,85.25
2023-02-05T07:36:26.546Z,85.13
2023-02-05T07:38:50.374Z,85.08
2023-02-05T07:41:17.280Z,84.59
2023-02-05T07:43:42.558Z,85.24
2023-02-05T07:46:08.547Z,85.02
2023-02-05T07:48:32.309Z,83.66
2023-02-05T07:50:56.133Z,82.70
2023-02-05T07:53:20.049Z,83.58
2023-02-05T07:55:43.764Z,82.91
2023-02-05T07:58:07.470Z,82.85
2023-02-05T08:00:32.617Z,81.90
2023-02-05T08:02:56.261Z,82.50
2023-02-05T08:05:20.096Z,82.79
2023-02-05T08:07:43.781Z,83.92
2023-02-05T08:10:08.563Z,83.46
2023-02-05T08:12:32.368Z,83.30
2023-02-05T08:14:56.438Z,82.17
2023-02-05T08:17:21.551Z,82.69
2023-02-05T08:19:45.312Z,83.11
2023-02-05T08:22:09.226Z,82.91
2023-02-05T08:24:33.597Z,82.75
2023-02-05T08:26:57.187Z,83.84
2023-02-05T08:29:20.922Z,83.71
2023-02-05T08:31:45.424Z,85.72
2023-02-05T08:34:10.606Z,85.73
2023-02-05T08:36:34.316Z,85.22
2023-02-05T08:38:58.279Z,84.74
2023-02-05T08:41:21.927Z,83.18
2023-02-05T08:43:48.311Z,83.51
2023-02-05T08:46:14.489Z,82.72
2023-02-05T08:48:39.202Z,82.86
2023-02-05T08:51:05.465Z,83.21
2023-02-05T08:53:29.552Z,82.42
2023-02-05T08:55:57.152Z,81.96
2023-02-05T08:58:20.913Z,82.27
2023-02-05T09:00:44.557Z,82.20
2023-02-05T09:03:08.855Z,81.90
2023-02-05T09:05:32.658Z,81.48
2023-02-05T09:07:59.299Z,80.77
2023-02-05T09:10:23.128Z,80.99
2023-02-05T09:12:49.068Z,80.58
2023-02-05T09:15:12.679Z,80.35
2023-02-05T09:17:36.471Z,80.23
2023-02-05T09:20:00.208Z,79.57
2023-02-05T09:22:23.905Z,78.96
2023-02-05T09:24:49.009Z,77.99
2023-02-05T09:27:14.408Z,78.09
2023-02-05T09:29:38.273Z,77.51
2023-02-05T09:32:02.094Z,76.72
2023-02-05T09:34:25.732Z,72.77
2023-02-05T09:36:49.451Z,71.25
2023-02-05T09:39:25.684Z,70.02
2023-02-05T09:42:05.050Z,72.93
2023-02-05T09:44:50.652Z,71.08
2023-02-05T09:47:25.019Z,66.75
2023-02-05T09:49:57.781Z,68.84
2023-02-05T09:52:27.326Z,68.10
2023-02-05T09:54:56.649Z,66.70
2023-02-05T09:57:34.700Z,67.19
2023-02-05T09:59:59.457Z,67.86
2023-02-05T10:02:30.611Z,66.67
2023-02-05T10:04:55.379Z,67.26
2023-02-05T10:07:27.545Z,66.33
2023-02-05T10:10:26.059Z,64.90
2023-02-05T10:13:29.307Z,64.57
2023-02-05T10:16:34.741Z,66.76
2023-02-05T10:19:20.864Z,65.05
2023-02-05T10:22:11.979Z,63.25
2023-02-05T10:24:53.770Z,62.08
2023-02-05T10:27:22.715Z,61.64
2023-02-05T10:29:59.547Z,61.75
2023-02-05T10:32:24.974Z,60.76
2023-02-05T10:34:58.060Z,61.95
2023-02-05T10:37:29.873Z,60.62
2023-02-05T10:39:54.829Z,61.36
2023-02-05T10:42:30.445Z,61.70
2023-02-05T10:45:07.436Z,60.05
2023-02-05T10:47:49.432Z,60.91
2023-02-05T10:50:23.179Z,62.82
2023-02-05T10:52:46.970Z,61.39
2023-02-05T10:55:13.373Z,61.63
2023-02-05T10:57:37.494Z,62.56
2023-02-05T11:00:07.751Z,61.65
2023-02-05T11:02:38.708Z,61.50
2023-02-05T11:05:07.940Z,61.53
2023-02-05T11:07:40.200Z,61.52
2023-02-05T11:10:17.426Z,63.07
2023-02-05T11:12:41.220Z,62.02
2023-02-05T11:15:06.471Z,61.47
2023-02-05T11:17:35.482Z,61.18
2023-02-05T11:20:02.951Z,61.41
2023-02-05T11:22:31.746Z,60.51
2023-02-05T11:25:11.436Z,61.45
2023-02-05T11:27:36.772Z,61.52
2023-02-05T11:30:51.959Z,62.88
2023-02-05T11:33:30.776Z,62.26
2023-02-05T11:35:59.118Z,61.20
2023-02-05T11:38:31.949Z,60.52
2023-02-05T11:40:55.951Z,61.31
2023-02-05T11:43:26.897Z,61.12
2023-02-05T11:45:55.168Z,61.00
2023-02-05T11:48:36.456Z,61.10
2023-02-05T11:51:00.793Z,60.95
2023-02-05T11:53:24.896Z,61.71
2023-02-05T11:55:55.730Z,60.15
2023-02-05T11:58:36.202Z,59.82
2023-02-05T12:01:04.243Z,60.45
2023-02-05T12:03:31.074Z,60.01
2023-02-05T12:06:04.557Z,60.56
2023-02-05T12:08:37.646Z,61.17
2023-02-05T12:11:17.223Z,59.88
2023-02-05T12:13:58.439Z,60.11
2023-02-05T12:16:41.758Z,60.15
2023-02-05T12:19:19.618Z,59.58
2023-02-05T12:21:51.859Z,59.62
2023-02-05T12:24:31.712Z,59.26
2023-02-05T12:27:00.768Z,60.28
2023-02-05T12:29:46.556Z,59.21
2023-02-05T12:32:23.573Z,58.44
2023-02-05T12:35:09.548Z,58.85
2023-02-05T12:37:40.936Z,58.82
2023-02-05T12:40:25.428Z,58.22
2023-02-05T12:42:59.683Z,57.89
2023-02-05T12:45:54.586Z,59.98
2023-02-05T12:48:40.294Z,57.58
2023-02-05T12:51:23.008Z,56.77
2023-02-05T12:54:19.817Z,57.41
2023-02-05T12:56:58.153Z,57.93
2023-02-05T12:59:34.506Z,56.72
2023-02-05T13:02:07.345Z,56.71
2023-02-05T13:04:38.883Z,56.59
2023-02-05T13:07:13.147Z,55.96
2023-02-05T13:09:48.794Z,57.06
2023-02-05T13:12:16.784Z,56.30
2023-02-05T13:14:45.658Z,56.00
2023-02-05T13:17:17.280Z,55.84
2023-02-05T13:19:48.277Z,56.06
2023-02-05T13:22:35.833Z,56.86
2023-02-05T13:25:29.977Z,57.12
2023-02-05T13:28:30.445Z,56.46
2023-02-05T13:30:57.265Z,55.74
2023-02-05T13:33:20.872Z,55.66
2023-02-05T13:35:58.034Z,55.47
2023-02-05T13:38:39.997Z,55.60
2023-02-05T13:41:30.247Z,55.03
2023-02-05T13:44:21.122Z,56.38
2023-02-05T13:47:19.911Z,55.54
2023-02-05T13:50:29.332Z,55.48
2023-02-05T13:53:25.183Z,55.41
2023-02-05T13:56:25.211Z,55.12
2023-02-05T13:58:51.962Z,55.82
2023-02-05T14:01:22.670Z,55.72
2023-02-05T14:03:59.525Z,55.87
2023-02-05T14:06:29.777Z,54.55
2023-02-05T14:09:02.651Z,53.75
2023-02-05T14:11:26.427Z,54.51
2023-02-05T14:14:37.898Z,55.24
2023-02-05T14:17:04.328Z,55.08
2023-02-05T14:19:57.071Z,54.30
2023-02-05T14:22:38.088Z,54.41
2023-02-05T14:25:03.180Z,54.66
2023-02-05T14:27:55.297Z,56.29
2023-02-05T14:30:50.830Z,55.68
2023-02-05T14:33:40.622Z,56.44
2023-02-05T14:36:33.928Z,56.32
2023-02-05T14:39:02.059Z,56.01
2023-02-05T14:41:31.051Z,55.81
2023-02-05T14:43:59.369Z,55.58
2023-02-05T14:46:31.375Z,56.55
2023-02-05T14:48:58.258Z,55.50
2023-02-05T14:51:27.440Z,55.78
2023-02-05T14:53:59.926Z,56.42
2023-02-05T14:56:33.918Z,56.11
2023-02-05T14:59:05.199Z,56.39
2023-02-05T15:01:44.511Z,56.67
2023-02-05T15:04:23.404Z,58.27
2023-02-05T15:06:48.395Z,57.04
2023-02-05T15:09:18.574Z,56.44
2023-02-05T15:12:02.704Z,56.11
2023-02-05T15:14:44.527Z,56.35
2023-02-05T15:17:58.118Z,57.19
2023-02-05T15:20:32.369Z,57.31
2023-02-05T15:23:04.755Z,57.42
2023-02-05T15:25:39.641Z,57.40
2023-02-05T15:28:10.190Z,58.11
2023-02-05T15:30:53.368Z,57.69
2023-02-05T15:33:27.082Z,57.44
2023-02-05T15:35:52.891Z,58.27
2023-02-05T15:38:28.441Z,57.13
2023-02-05T15:40:52.957Z,58.14
2023-02-05T15:43:23.495Z,58.69
2023-02-05T15:45:47.814Z,57.86
2023-02-05T15:48:16.775Z,60.44
2023-02-05T15:50:47.016Z,60.22
2023-02-05T15:53:22.882Z,58.88
2023-02-05T15:55:50.284Z,59.08
2023-02-05T15:58:18.181Z,59.51
2023-02-05T16:00:47.854Z,60.07
2023-02-05T16:03:27.690Z,61.50
2023-02-05T16:05:54.223Z,60.74
2023-02-05T16:08:21.334Z,61.73
2023-02-05T16:10:57.799Z,60.24
2023-02-05T16:13:22.861Z,62.29
2023-02-05T16:15:53.300Z,61.77
2023-02-05T16:18:22.808Z,60.47
2023-02-05T16:20:53.232Z,62.07
2023-02-05T16:23:25.709Z,62.88
2023-02-05T16:25:53.617Z,63.77
2023-02-05T16:28:21.531Z,63.83
2023-02-05T16:30:49.027Z,63.51
2023-02-05T16:33:26.593Z,64.75
2023-02-05T16:35:50.583Z,65.32
2023-02-05T16:38:19.010Z,65.56
2023-02-05T16:40:46.681Z,66.03
2023-02-05T16:43:28.976Z,64.86
2023-02-05T16:46:31.101Z,65.35
2023-02-05T16:48:58.461Z,66.57
2023-02-05T16:51:36.565Z,65.49
2023-02-05T16:54:01.969Z,65.71
2023-02-05T16:56:28.604Z,66.41
2023-02-05T16:58:55.962Z,66.46
2023-02-05T17:01:25.032Z,66.01
2023-02-05T17:03:51.664Z,66.36
2023-02-05T17:06:17.768Z,66.44
2023-02-05T17:08:45.451Z,66.69
2023-02-05T17:11:34.957Z,67.75
2023-02-05T17:14:22.188Z,67.52
2023-02-05T17:16:57.622Z,66.93
2023-02-05T17:19:28.301Z,67.10
2023-02-05T17:22:20.583Z,67.52
2023-02-05T17:24:45.579Z,67.35
2023-02-05T17:27:15.996Z,67.62
2023-02-05T17:29:39.681Z,68.33
2023-02-05T17:32:05.165Z,68.58
2023-02-05T17:34:30.205Z,68.19
2023-02-05T17:36:53.796Z,67.33
2023-02-05T17:39:17.433Z,67.48
2023-02-05T17:42:08.906Z,66.75
2023-02-05T17:44:34.226Z,67.69
2023-02-05T17:47:00.399Z,68.18
2023-02-05T17:49:24.047Z,68.93
2023-02-05T17:51:49.121Z,69.80
2023-02-05T17:54:16.099Z,68.44
2023-02-05T17:56:42.209Z,68.65
2023-02-05T17:59:05.893Z,69.71
2023-02-05T18:01:29.592Z,70.45
2023-02-05T18:03:53.249Z,70.44
2023-02-05T18:06:19.785Z,69.74
2023-02-05T18:08:44.848Z,71.01
2023-02-05T18:11:08.496Z,70.32
2023-02-05T18:13:32.254Z,70.70
2023-02-05T18:16:01.456Z,72.60
2023-02-05T18:18:25.203Z,72.61
2023-02-05T18:20:48.842Z,71.35
2023-02-05T18:23:16.198Z,70.42
2023-02-05T18:25:46.470Z,70.62
2023-02-05T18:28:10.212Z,71.05
2023-02-05T18:30:34.524Z,71.39
2023-02-05T18:32:58.480Z,71.10
2023-02-05T18:35:22.181Z,70.39
2023-02-05T18:37:47.074Z,72.09
2023-02-05T18:40:12.692Z,70.27
2023-02-05T18:42:37.727Z,70.56
2023-02-05T18:45:01.541Z,71.34
2023-02-05T18:47:25.169Z,70.26
2023-02-05T18:49:48.855Z,71.03
2023-02-05T18:52:14.030Z,69.87
2023-02-05T18:54:37.670Z,71.88
2023-02-05T18:57:01.340Z,71.29
2023-02-05T18:59:26.426Z,70.73
2023-02-05T19:01:50.008Z,72.37
2023-02-05T19:04:18.553Z,71.36
2023-02-05T19:06:43.103Z,70.93
2023-02-05T19:09:06.800Z,72.88
2023-02-05T19:11:32.062Z,72.13
2023-02-05T19:14:02.596Z,73.28
2023-02-05T19:16:29.495Z,73.73
2023-02-05T19:18:53.093Z,73.08
2023-02-05T19:21:19.584Z,72.85
2023-02-05T19:23:44.432Z,71.98
2023-02-05T19:26:11.586Z,71.64
2023-02-05T19:28:36.159Z,74.73
2023-02-05T19:31:03.604Z,74.63
2023-02-05T19:33:28.840Z,73.48
2023-02-05T19:35:52.480Z,73.31
2023-02-05T19:38:16.260Z,72.79
2023-02-05T19:40:39.870Z,74.54
2023-02-05T19:43:03.473Z,75.90
2023-02-05T19:45:27.314Z,75.36
2023-02-05T19:47:51.021Z,73.97
2023-02-05T19:50:16.223Z,77.32
2023-02-05T19:52:39.838Z,76.54
2023-02-05T19:55:03.468Z,75.65
2023-02-05T19:57:27.156Z,73.44
2023-02-05T19:59:50.734Z,74.06
2023-02-05T20:02:19.187Z,73.14
2023-02-05T20:04:43.042Z,73.52
2023-02-05T20:07:08.123Z,73.39
2023-02-05T20:09:32.782Z,72.79
2023-02-05T20:11:56.536Z,73.24
2023-02-05T20:14:20.548Z,74.53
2023-02-05T20:16:45.211Z,76.32
2023-02-05T20:19:10.921Z,76.02
2023-02-05T20:21:34.808Z,75.39
2023-02-05T20:24:00.084Z,76.27
2023-02-05T20:26:23.936Z,74.80
2023-02-05T20:29:07.355Z,73.65
2023-02-05T20:31:34.798Z,74.10
2023-02-05T20:33:58.394Z,75.43
2023-02-05T20:36:22.204Z,74.38
2023-02-05T20:38:45.789Z,74.98
2023-02-05T20:41:16.331Z,76.99
2023-02-05T20:43:40.028Z,75.46
2023-02-05T20:46:05.146Z,77.18
2023-02-05T20:48:30.537Z,75.99
2023-02-05T20:50:54.135Z,76.51
2023-02-05T20:53:18.854Z,76.11
2023-02-05T20:55:42.465Z,76.02
2023-02-05T20:58:07.567Z,75.50
2023-02-05T21:00:31.240Z,76.37
2023-02-05T21:02:55.299Z,76.10
2023-02-05T21:05:18.999Z,77.94
2023-02-05T21:07:42.679Z,77.07
2023-02-05T21:10:07.448Z,76.62
2023-02-05T21:12:32.423Z,75.69
2023-02-05T21:14:57.587Z,77.25
2023-02-05T21:17:21.363Z,78.32
2023-02-05T21:19:45.011Z,78.21
2023-02-05T21:22:08.773Z,76.87
2023-02-05T21:24:33.083Z,77.65
2023-02-05T21:26:57.201Z,77.22
2023-02-05T21:29:22.240Z,77.63
2023-02-05T21:31:49.519Z,77.77
2023-02-05T21:34:16.203Z,77.96
2023-02-05T21:36:39.887Z,77.86
2023-02-05T21:39:03.525Z,77.17
2023-02-05T21:41:27.736Z,77.05
2023-02-05T21:43:52.714Z,77.79
2023-02-05T21:46:16.433Z,77.89
2023-02-05T21:48:41.819Z,79.08
2023-02-05T21:51:11.502Z,78.70
2023-02-05T21:53:35.297Z,78.97
2023-02-05T21:56:02.717Z,77.98
2023-02-05T21:58:26.440Z,77.19
2023-02-05T22:00:50.163Z,77.37
2023-02-05T22:03:13.860Z,76.93
2023-02-05T22:05:38.893Z,77.10
2023-02-05T22:08:02.513Z,78.33
2023-02-05T22:10:26.169Z,79.71
2023-02-05T22:12:49.777Z,79.73
2023-02-05T22:15:14.296Z,78.66
2023-02-05T22:17:37.950Z,80.28
2023-02-05T22:20:01.679Z,80.46
2023-02-05T22:22:26.851Z,78.76
2023-02-05T22:24:50.746Z,78.41
2023-02-05T22:27:14.411Z,78.82
2023-02-05T22:29:38.087Z,79.36
2023-02-05T22:32:01.741Z,78.08
2023-02-05T22:34:25.517Z,77.63
2023-02-05T22:36:49.333Z,79.38
2023-02-05T22:39:14.445Z,79.70
2023-02-05T22:41:41.166Z,78.97
2023-02-05T22:44:07.221Z,79.49
2023-02-05T22:46:33.842Z,80.53
2023-02-05T22:48:59.668Z,80.00
2023-02-05T22:51:25.977Z,79.58
2023-02-05T22:53:49.977Z,79.87
2023-02-05T22:56:15.656Z,79.50
2023-02-05T22:58:41.567Z,79.04
2023-02-05T23:01:10.063Z,81.17
2023-02-05T23:03:33.766Z,81.36
2023-02-05T23:05:57.428Z,80.80
2023-02-05T23:08:21.043Z,78.62
2023-02-05T23:10:44.789Z,79.14
2023-02-05T23:13:09.929Z,80.50
2023-02-05T23:15:33.679Z,79.95
2023-02-05T23:17:57.578Z,79.05
2023-02-05T23:20:21.494Z,78.88
2023-02-05T23:22:45.244Z,79.29
2023-02-05T23:25:09.326Z,80.19
2023-02-05T23:27:34.453Z,80.13
2023-02-05T23:29:59.589Z,79.58
2023-02-05T23:32:23.307Z,78.88
2023-02-05T23:34:47.042Z,79.43
2023-02-05T23:37:10.896Z,81.47
2023-02-05T23:39:34.563Z,78.83
2023-02-05T23:41:58.186Z,77.92
2023-02-05T23:44:22.162Z,78.93
2023-02-05T23:46:49.283Z,78.65
2023-02-05T23:49:13.772Z,80.52
2023-02-05T23:51:37.966Z,80.71
2023-02-05T23:54:01.861Z,78.66
2023-02-05T23:56:25.522Z,78.83
2023-02-05T23:58:49.154Z,77.65
